Time;durP1;ratioP1;P1;durP2;ratioP2;P2;SDS_P1;SDS_P2;PMS_P1;PMS_P2;Temp;Humidity;BMP_temperature;BMP_pressure;BME280_temperature;BME280_humidity;BME280_pressure;Samples;Min_cycle;Max_cycle;Signal;HPM_P1;HPM_P2
2023/09/10 00:02:24;;;;;;;9.95;9.10;;;17.00;99.90;;;;;;6118913;23;20014;-70
2023/09/10 00:04:50;;;;;;;8.38;7.68;;;17.00;99.90;;;;;;6092450;23;20018;-70
2023/09/10 00:07:16;;;;;;;8.88;8.10;;;17.00;99.90;;;;;;6116747;23;20022;-70
2023/09/10 00:09:41;;;;;;;9.93;9.02;;;16.90;99.90;;;;;;6092225;23;20014;-70
2023/09/10 00:12:07;;;;;;;11.27;10.27;;;16.90;99.90;;;;;;6092291;23;20096;-70
2023/09/10 00:14:32;;;;;;;12.32;11.13;;;16.80;99.90;;;;;;6118649;23;20014;-70
2023/09/10 00:16:58;;;;;;;11.88;10.88;;;16.90;99.90;;;;;;6092329;23;20344;-70
2023/09/10 00:19:24;;;;;;;14.48;13.23;;;16.70;99.90;;;;;;6091627;23;20044;-70
2023/09/10 00:21:49;;;;;;;14.77;13.57;;;16.70;99.90;;;;;;6117131;23;20010;-70
2023/09/10 00:24:15;;;;;;;13.00;11.90;;;16.80;99.90;;;;;;6091867;23;20045;-70
2023/09/10 00:26:41;;;;;;;12.88;11.55;;;16.70;99.90;;;;;;6091894;23;20022;-70
2023/09/10 00:29:06;;;;;;;11.05;10.13;;;16.70;99.90;;;;;;6092757;23;20093;-70
2023/09/10 00:31:33;;;;;;;9.45;8.75;;;16.70;99.90;;;;;;6117542;23;20085;-70
2023/09/10 00:33:59;;;;;;;10.80;9.85;;;16.70;99.90;;;;;;6092317;23;20032;-70
2023/09/10 00:36:24;;;;;;;6.97;6.45;;;16.70;99.90;;;;;;6091060;23;20089;-70
2023/09/10 00:38:51;;;;;;;8.05;7.18;;;16.70;99.90;;;;;;6089048;23;20055;-70
2023/09/10 00:41:17;;;;;;;6.60;6.13;;;16.60;99.90;;;;;;6092033;23;20455;-70
2023/09/10 00:43:42;;;;;;;6.80;6.20;;;16.70;99.90;;;;;;6119073;23;20079;-70
2023/09/10 00:46:08;;;;;;;6.88;5.70;;;16.60;99.90;;;;;;6092615;23;20014;-70
2023/09/10 00:48:34;;;;;;;7.20;6.70;;;16.60;99.90;;;;;;6117130;23;20588;-70
2023/09/10 00:51:00;;;;;;;5.50;5.00;;;16.70;99.90;;;;;;6091785;23;20024;-70
2023/09/10 00:53:26;;;;;;;5.13;4.72;;;16.70;99.90;;;;;;6118235;23;20685;-70
2023/09/10 00:55:52;;;;;;;5.68;5.22;;;16.60;99.90;;;;;;6118136;23;20336;-70
2023/09/10 00:58:18;;;;;;;6.05;5.60;;;16.60;99.90;;;;;;6091726;23;20084;-70
2023/09/10 01:00:44;;;;;;;5.28;4.88;;;16.60;99.90;;;;;;6118405;23;20018;-70
2023/09/10 01:03:10;;;;;;;5.10;4.60;;;16.60;99.90;;;;;;6092807;23;20068;-70
2023/09/10 01:05:36;;;;;;;4.82;4.53;;;16.60;99.90;;;;;;6093334;23;20018;-70
2023/09/10 01:08:05;;;;;;;5.25;4.80;;;16.60;99.90;;;;;;6116975;23;20024;-70
2023/09/10 01:10:42;;;;;;;5.22;4.93;;;16.60;99.90;;;;;;6090550;23;20075;-70
2023/09/10 01:13:40;;;;;;;5.80;5.40;;;16.60;99.90;;;;;;6121020;23;20014;-70
2023/09/10 01:16:20;;;;;;;8.63;8.02;;;16.60;99.90;;;;;;6093874;23;20022;-70
2023/09/10 01:18:50;;;;;;;9.02;8.27;;;16.50;99.90;;;;;;6092310;23;20494;-70
2023/09/10 01:21:45;;;;;;;7.43;6.90;;;16.50;99.90;;;;;;6093073;23;20101;-70
2023/09/10 01:24:24;;;;;;;10.10;7.37;;;16.50;99.90;;;;;;6119490;23;20010;-70
2023/09/10 01:26:57;;;;;;;6.75;6.32;;;16.50;99.90;;;;;;6118890;23;20014;-70
2023/09/10 01:29:23;;;;;;;7.47;6.88;;;16.40;99.90;;;;;;6119070;23;20014;-70
2023/09/10 01:31:53;;;;;;;7.93;7.32;;;16.40;99.90;;;;;;6091711;23;20061;-70
2023/09/10 01:34:23;;;;;;;8.70;7.97;;;16.40;99.90;;;;;;6069905;23;20481;-70
2023/09/10 01:36:55;;;;;;;8.27;7.60;;;16.50;99.90;;;;;;6092426;23;20014;-70
2023/09/10 01:39:36;;;;;;;6.93;6.43;;;16.40;99.90;;;;;;6091856;23;20072;-70
2023/09/10 01:42:04;;;;;;;8.43;7.88;;;16.40;99.90;;;;;;6120029;23;20072;-70
2023/09/10 01:44:31;;;;;;;5.15;4.85;;;16.40;99.90;;;;;;6093347;23;20015;-70
2023/09/10 01:46:58;;;;;;;9.80;8.80;;;16.40;99.90;;;;;;6118552;23;20010;-70
2023/09/10 01:49:25;;;;;;;8.23;7.63;;;16.30;99.90;;;;;;6093049;23;20450;-70
2023/09/10 01:51:51;;;;;;;10.05;9.35;;;16.40;99.90;;;;;;6092861;23;20022;-70
2023/09/10 01:54:16;;;;;;;8.73;8.07;;;16.40;99.90;;;;;;6094051;23;20459;-70
2023/09/10 01:56:42;;;;;;;8.23;7.50;;;16.30;99.90;;;;;;6118768;23;20145;-70
2023/09/10 01:59:07;;;;;;;7.38;6.88;;;16.40;99.90;;;;;;6091394;23;20014;-70
2023/09/10 02:01:33;;;;;;;7.57;7.07;;;16.40;99.90;;;;;;6090919;23;20758;-70
2023/09/10 02:03:58;;;;;;;9.15;8.25;;;16.40;99.90;;;;;;6092176;23;20018;-70
2023/09/10 02:06:24;;;;;;;8.75;7.95;;;16.40;99.90;;;;;;6118526;23;20018;-70
2023/09/10 02:08:50;;;;;;;9.60;8.90;;;16.40;99.90;;;;;;6091057;23;20353;-70
2023/09/10 02:11:15;;;;;;;8.55;7.75;;;16.50;99.90;;;;;;6092256;23;20093;-70
2023/09/10 02:13:41;;;;;;;10.55;9.50;;;16.50;99.90;;;;;;6091757;23;20030;-70
2023/09/10 02:16:07;;;;;;;12.43;11.32;;;16.40;99.90;;;;;;6093197;23;20437;-70
2023/09/10 02:18:33;;;;;;;11.07;10.18;;;16.40;99.90;;;;;;6118036;23;20077;-70
2023/09/10 02:20:58;;;;;;;10.50;9.65;;;16.50;99.90;;;;;;6120129;23;20374;-70
2023/09/10 02:23:24;;;;;;;12.15;11.35;;;16.40;99.90;;;;;;6093622;23;20298;-70
2023/09/10 02:25:50;;;;;;;11.55;10.75;;;16.40;99.90;;;;;;6092746;23;20097;-70
2023/09/10 02:28:15;;;;;;;12.45;11.55;;;16.70;99.90;;;;;;6067921;23;20384;-70
2023/09/10 02:30:41;;;;;;;12.02;11.13;;;16.30;99.90;;;;;;6117368;23;20021;-70
2023/09/10 02:33:09;;;;;;;17.08;15.57;;;16.30;99.90;;;;;;6119102;23;20010;-70
2023/09/10 02:35:34;;;;;;;15.48;14.20;;;16.30;99.90;;;;;;6092919;23;20025;-70
2023/09/10 02:38:00;;;;;;;12.80;11.60;;;16.40;99.90;;;;;;6119061;23;20441;-70
2023/09/10 02:40:25;;;;;;;19.20;17.50;;;16.50;99.90;;;;;;6118286;23;20062;-70
2023/09/10 02:42:51;;;;;;;13.80;12.50;;;16.50;99.90;;;;;;6120507;23;20020;-69
2023/09/10 02:45:17;;;;;;;11.75;10.75;;;16.50;99.90;;;;;;6118269;23;20373;-70
2023/09/10 02:47:42;;;;;;;12.30;11.40;;;16.50;99.90;;;;;;6092774;23;20018;-70
2023/09/10 02:50:09;;;;;;;12.65;11.70;;;16.40;99.90;;;;;;6118500;23;20436;-70
2023/09/10 02:52:36;;;;;;;10.60;9.70;;;16.40;99.90;;;;;;6119310;23;20128;-70
2023/09/10 02:55:01;;;;;;;13.98;12.88;;;16.40;99.90;;;;;;6093468;23;20059;-70
2023/09/10 02:57:27;;;;;;;13.32;12.20;;;16.30;99.90;;;;;;6092565;23;20026;-70
2023/09/10 02:59:53;;;;;;;13.18;12.00;;;16.30;99.90;;;;;;6118464;23;20049;-70
2023/09/10 03:02:18;;;;;;;12.27;11.38;;;16.20;99.90;;;;;;6118023;23;20337;-70
2023/09/10 03:04:44;;;;;;;14.13;13.05;;;16.10;99.90;;;;;;6091032;23;20013;-70
2023/09/10 03:07:09;;;;;;;14.18;13.07;;;16.20;99.90;;;;;;6119104;23;20059;-70
2023/09/10 03:09:35;;;;;;;15.40;14.15;;;16.10;99.90;;;;;;6118652;23;20029;-70
2023/09/10 03:12:20;;;;;;;17.20;15.70;;;16.10;99.90;;;;;;6092495;23;20025;-70
2023/09/10 03:14:46;;;;;;;17.27;15.55;;;16.10;99.90;;;;;;6092833;23;20056;-70
2023/09/10 03:17:12;;;;;;;19.13;17.40;;;16.10;99.90;;;;;;6115954;23;20038;-70
2023/09/10 03:19:37;;;;;;;22.23;20.17;;;16.10;99.90;;;;;;6117942;23;20018;-70
2023/09/10 03:22:03;;;;;;;21.33;19.42;;;16.20;99.90;;;;;;6093647;23;20037;-70
2023/09/10 03:24:29;;;;;;;17.60;16.05;;;16.40;99.90;;;;;;6118708;23;20441;-69
2023/09/10 03:26:55;;;;;;;16.90;15.40;;;16.20;99.90;;;;;;6118691;23;20014;-70
2023/09/10 03:29:20;;;;;;;16.52;14.80;;;16.20;99.90;;;;;;6118635;23;20048;-70
2023/09/10 03:31:46;;;;;;;11.80;10.90;;;16.20;99.90;;;;;;6117842;23;20010;-69
2023/09/10 03:34:12;;;;;;;13.05;11.95;;;16.20;99.90;;;;;;6089718;23;20014;-69
2023/09/10 03:36:37;;;;;;;11.40;10.13;;;16.20;99.90;;;;;;6117950;23;20014;-70
2023/09/10 03:39:03;;;;;;;12.00;10.88;;;16.20;99.90;;;;;;6118038;23;20044;-70
2023/09/10 03:41:29;;;;;;;13.13;12.02;;;16.20;99.90;;;;;;6091767;23;20053;-69
2023/09/10 03:43:56;;;;;;;15.85;14.25;;;16.20;99.90;;;;;;6119183;23;20132;-69
2023/09/10 03:46:22;;;;;;;13.25;12.05;;;16.20;99.90;;;;;;6117912;23;20022;-69
2023/09/10 03:48:47;;;;;;;12.40;11.43;;;16.10;99.90;;;;;;6118432;23;20101;-69
2023/09/10 03:51:13;;;;;;;14.00;12.80;;;16.10;99.90;;;;;;6093009;23;20022;-69
2023/09/10 03:53:38;;;;;;;15.95;14.55;;;16.10;99.90;;;;;;6118320;23;20022;-70
2023/09/10 03:56:04;;;;;;;17.85;16.10;;;16.10;99.90;;;;;;6092313;23;20021;-70
2023/09/10 03:58:30;;;;;;;17.77;16.20;;;16.10;99.90;;;;;;6093247;23;20014;-69
2023/09/10 04:00:55;;;;;;;16.25;14.65;;;16.10;99.90;;;;;;6117241;23;20018;-69
2023/09/10 04:03:21;;;;;;;15.77;14.40;;;16.10;99.90;;;;;;6118035;23;20014;-69
2023/09/10 04:05:46;;;;;;;15.07;13.70;;;16.10;99.90;;;;;;6118196;23;20329;-69
2023/09/10 04:08:12;;;;;;;13.55;11.10;;;16.10;99.90;;;;;;6092699;23;20018;-69
2023/09/10 04:10:37;;;;;;;13.98;12.60;;;16.10;99.90;;;;;;6117566;23;20037;-69
2023/09/10 04:13:04;;;;;;;12.93;11.93;;;16.60;99.90;;;;;;6092949;23;20310;-69
2023/09/10 04:15:29;;;;;;;14.15;12.95;;;16.20;99.90;;;;;;6117166;23;20089;-69
2023/09/10 04:17:55;;;;;;;15.77;14.38;;;16.10;99.90;;;;;;6118555;23;20385;-69
2023/09/10 04:20:21;;;;;;;16.15;14.60;;;15.90;99.90;;;;;;6116937;23;20010;-69
2023/09/10 04:22:47;;;;;;;15.50;14.10;;;16.00;99.90;;;;;;6090822;23;20093;-69
2023/09/10 04:25:12;;;;;;;16.77;15.27;;;16.00;99.90;;;;;;6114670;23;20533;-69
2023/09/10 04:27:38;;;;;;;14.88;13.57;;;15.90;99.90;;;;;;6118563;23;20018;-69
2023/09/10 04:30:04;;;;;;;17.67;15.98;;;15.90;99.90;;;;;;6115994;23;20025;-69
2023/09/10 04:32:30;;;;;;;17.40;15.88;;;15.90;99.90;;;;;;6117306;23;20018;-69
2023/09/10 04:34:56;;;;;;;17.95;16.40;;;15.90;99.90;;;;;;6092780;23;20080;-69
2023/09/10 04:37:21;;;;;;;17.85;16.25;;;15.90;99.90;;;;;;6117723;23;20010;-69
2023/09/10 04:39:47;;;;;;;16.20;14.52;;;15.90;99.90;;;;;;6118804;23;20018;-69
2023/09/10 04:42:12;;;;;;;14.75;13.38;;;15.90;99.90;;;;;;6092921;23;20025;-69
2023/09/10 04:44:38;;;;;;;11.88;10.88;;;15.90;99.90;;;;;;6092092;23;20306;-69
2023/09/10 04:47:04;;;;;;;13.65;12.55;;;15.90;99.90;;;;;;6092679;23;20041;-69
2023/09/10 04:49:29;;;;;;;15.25;14.00;;;15.90;99.90;;;;;;6117346;23;20608;-69
2023/09/10 04:51:55;;;;;;;18.98;17.40;;;15.90;99.90;;;;;;6119124;23;20409;-69
2023/09/10 04:54:21;;;;;;;16.83;15.27;;;15.90;99.90;;;;;;6117316;23;20021;-69
2023/09/10 04:56:53;;;;;;;16.10;14.70;;;16.00;99.90;;;;;;6117871;23;20022;-69
2023/09/10 04:59:19;;;;;;;16.88;15.38;;;16.00;99.90;;;;;;6091645;23;20021;-69
2023/09/10 05:01:45;;;;;;;23.25;21.13;;;16.00;99.90;;;;;;6115649;23;20441;-69
2023/09/10 05:04:10;;;;;;;23.55;21.38;;;15.90;99.90;;;;;;6092265;23;20178;-69
2023/09/10 05:06:36;;;;;;;22.55;20.55;;;15.90;99.90;;;;;;6118204;23;20441;-69
2023/09/10 05:09:02;;;;;;;19.63;17.92;;;15.90;99.90;;;;;;6116423;23;20022;-69
2023/09/10 05:11:28;;;;;;;21.10;19.30;;;15.90;99.90;;;;;;6117904;23;20029;-69
2023/09/10 05:13:53;;;;;;;22.10;20.20;;;15.80;99.90;;;;;;6089217;23;20026;-69
2023/09/10 05:16:19;;;;;;;21.35;19.50;;;15.80;99.90;;;;;;6089049;23;20022;-69
2023/09/10 05:18:45;;;;;;;20.77;18.83;;;15.80;99.90;;;;;;6115453;23;20014;-69
2023/09/10 05:21:10;;;;;;;23.27;20.33;;;15.90;99.90;;;;;;6088252;23;20026;-69
2023/09/10 05:23:36;;;;;;;17.75;16.25;;;15.90;99.90;;;;;;6114817;23;20104;-69
2023/09/10 05:26:02;;;;;;;19.27;17.58;;;15.90;99.90;;;;;;6116534;23;20014;-69
2023/09/10 05:28:29;;;;;;;19.92;18.20;;;16.00;99.90;;;;;;6088030;23;20028;-69
2023/09/10 05:30:54;;;;;;;18.40;16.83;;;16.10;99.90;;;;;;6112754;23;20816;-69
2023/09/10 05:33:20;;;;;;;19.83;18.13;;;16.10;99.90;;;;;;6115883;23;20022;-69
2023/09/10 05:35:58;;;;;;;18.48;16.67;;;16.20;99.90;;;;;;6088025;23;20022;-69
2023/09/10 05:38:24;;;;;;;17.00;15.68;;;16.30;99.90;;;;;;6089212;23;20018;-69
2023/09/10 05:40:51;;;;;;;19.48;17.77;;;16.40;99.90;;;;;;6088228;23;20449;-69
2023/09/10 05:43:17;;;;;;;18.17;16.48;;;16.50;99.90;;;;;;6115480;23;20014;-69
2023/09/10 05:45:46;;;;;;;20.52;18.75;;;16.60;99.90;;;;;;6090810;23;20020;-69
2023/09/10 05:48:12;;;;;;;20.38;18.58;;;16.70;99.90;;;;;;6117811;23;20660;-69
2023/09/10 05:50:42;;;;;;;24.42;22.13;;;16.90;99.90;;;;;;6115634;23;20044;-69
2023/09/10 05:53:07;;;;;;;24.02;21.92;;;17.10;99.90;;;;;;6091555;23;20018;-69
2023/09/10 05:55:37;;;;;;;21.55;19.65;;;17.30;99.90;;;;;;6117035;23;20044;-69
2023/09/10 05:58:03;;;;;;;25.27;23.15;;;17.60;99.90;;;;;;6090675;23;20018;-69
2023/09/10 06:00:29;;;;;;;24.02;21.92;;;18.10;99.90;;;;;;6088955;23;20037;-69
2023/09/10 06:02:54;;;;;;;25.65;23.10;;;18.70;99.90;;;;;;6090840;23;20093;-69
2023/09/10 06:05:20;;;;;;;24.20;22.10;;;19.20;99.90;;;;;;6116734;23;20010;-69
2023/09/10 06:07:45;;;;;;;23.95;21.95;;;19.70;99.90;;;;;;6092070;23;20018;-69
2023/09/10 06:10:11;;;;;;;24.25;22.23;;;20.20;99.90;;;;;;6115851;23;20096;-69
2023/09/10 06:12:37;;;;;;;21.13;19.45;;;20.80;99.90;;;;;;6118720;23;20025;-69
2023/09/10 06:15:04;;;;;;;22.67;20.60;;;21.30;99.90;;;;;;6092647;23;20022;-69
2023/09/10 06:17:30;;;;;;;24.42;22.33;;;21.80;99.90;;;;;;6118171;23;20056;-69
2023/09/10 06:19:55;;;;;;;23.75;21.65;;;22.20;99.90;;;;;;6090906;23;20026;-69
2023/09/10 06:22:21;;;;;;;23.27;21.17;;;22.70;99.90;;;;;;6091216;23;20022;-69
2023/09/10 06:24:47;;;;;;;25.23;22.73;;;23.40;99.90;;;;;;6114108;23;20073;-69
2023/09/10 06:27:12;;;;;;;24.10;22.02;;;23.70;99.90;;;;;;6090165;23;20403;-69
2023/09/10 06:29:38;;;;;;;24.17;21.92;;;23.90;99.90;;;;;;6115427;23;20018;-69
2023/09/10 06:32:04;;;;;;;21.38;19.67;;;24.00;99.90;;;;;;6116619;23;20089;-76
2023/09/10 06:34:30;;;;;;;24.88;22.40;;;24.30;99.90;;;;;;6116181;23;20090;-69
2023/09/10 06:36:56;;;;;;;23.75;21.80;;;24.40;99.90;;;;;;6092523;23;20118;-69
2023/09/10 06:39:22;;;;;;;22.60;20.52;;;24.30;99.90;;;;;;6092228;23;20580;-69
2023/09/10 06:41:48;;;;;;;23.98;21.90;;;24.50;99.90;;;;;;6117582;23;20067;-69
2023/09/10 06:44:14;;;;;;;25.05;22.85;;;24.80;99.90;;;;;;6117847;23;20017;-69
2023/09/10 06:46:39;;;;;;;24.73;22.63;;;24.50;99.90;;;;;;6117983;23;20010;-69
2023/09/10 06:49:05;;;;;;;25.83;23.63;;;24.20;99.90;;;;;;6090695;23;20037;-69
2023/09/10 06:51:31;;;;;;;24.77;22.70;;;23.90;99.90;;;;;;6091443;23;20014;-69
2023/09/10 06:53:56;;;;;;;27.02;24.50;;;23.90;99.90;;;;;;6092162;23;20071;-69
2023/09/10 06:56:22;;;;;;;27.23;24.75;;;23.80;99.90;;;;;;6116781;23;20014;-69
2023/09/10 06:58:48;;;;;;;26.05;23.67;;;23.70;99.90;;;;;;6113566;23;20017;-69
2023/09/10 07:35:08;;;;;;;25.42;23.17;;;22.80;99.90;;;;;;6116120;23;20029;-70
2023/09/10 07:37:33;;;;;;;25.88;23.50;;;22.70;99.90;;;;;;6087958;23;20032;-70
2023/09/10 07:39:59;;;;;;;25.45;23.23;;;22.70;99.90;;;;;;6115885;23;20013;-71
2023/09/10 07:42:24;;;;;;;23.65;21.42;;;22.70;99.90;;;;;;6091218;23;20021;-71
2023/09/10 07:44:50;;;;;;;23.27;21.13;;;22.80;99.90;;;;;;6119304;23;20045;-74
2023/09/10 07:47:16;;;;;;;23.10;21.13;;;22.80;99.90;;;;;;6118325;23;20018;-74
2023/09/10 07:49:41;;;;;;;25.05;22.95;;;22.80;99.90;;;;;;6118541;23;20045;-74
2023/09/10 07:52:07;;;;;;;24.02;21.92;;;22.70;99.90;;;;;;6117521;23;20342;-72
2023/09/10 07:54:35;;;;;;;25.10;22.98;;;22.70;99.90;;;;;;6118906;23;20014;-74
2023/09/10 07:57:01;;;;;;;22.98;21.08;;;22.80;99.90;;;;;;6090931;23;20033;-74
2023/09/10 07:59:27;;;;;;;24.15;21.95;;;22.80;99.90;;;;;;6090647;23;20337;-75
2023/09/10 08:01:52;;;;;;;22.88;20.58;;;22.90;99.90;;;;;;6116638;23;20310;-75
2023/09/10 08:04:18;;;;;;;22.35;20.35;;;23.00;99.90;;;;;;6115550;23;20022;-74
2023/09/10 08:06:44;;;;;;;23.10;20.80;;;23.10;99.90;;;;;;6089515;23;20014;-75
2023/09/10 08:09:09;;;;;;;22.73;20.65;;;23.10;99.90;;;;;;6117800;23;20329;-75
2023/09/10 08:11:35;;;;;;;22.88;20.83;;;23.20;99.90;;;;;;6091477;23;20014;-75
2023/09/10 08:14:01;;;;;;;21.88;19.77;;;23.30;99.90;;;;;;6116487;23;20067;-75
2023/09/10 08:16:42;;;;;;;20.75;19.05;;;23.20;99.90;;;;;;6091752;23;20049;-75
2023/09/10 08:19:07;;;;;;;20.60;18.85;;;23.40;99.90;;;;;;6117899;23;20014;-75
2023/09/10 08:21:33;;;;;;;22.95;20.75;;;23.40;99.90;;;;;;6118808;23;20006;-75
2023/09/10 08:23:58;;;;;;;21.15;19.13;;;23.70;99.90;;;;;;6118512;23;20026;-75
2023/09/10 08:26:24;;;;;;;21.15;19.33;;;23.90;99.90;;;;;;6117150;23;20072;-75
2023/09/10 08:28:49;;;;;;;21.70;19.90;;;24.00;99.90;;;;;;6091318;23;20079;-75
2023/09/10 08:31:15;;;;;;;21.50;19.70;;;24.30;99.90;;;;;;6117959;23;20028;-75
2023/09/10 08:33:41;;;;;;;21.15;19.25;;;24.40;99.90;;;;;;6117220;23;20025;-75
2023/09/10 08:36:06;;;;;;;22.17;20.20;;;24.60;99.90;;;;;;6118707;23;20119;-75
2023/09/10 08:38:32;;;;;;;21.98;20.08;;;24.80;99.90;;;;;;6092664;23;20334;-75
2023/09/10 08:40:57;;;;;;;21.10;19.40;;;25.00;99.90;;;;;;6092055;23;20018;-75
2023/09/10 08:43:28;;;;;;;20.38;18.50;;;25.20;99.90;;;;;;6091861;23;20046;-75
2023/09/10 08:45:54;;;;;;;21.77;19.63;;;25.40;99.90;;;;;;6115961;23;20097;-75
2023/09/10 08:48:20;;;;;;;19.50;17.67;;;25.60;99.90;;;;;;6089094;23;20038;-75
2023/09/10 08:50:47;;;;;;;19.77;17.60;;;25.80;99.90;;;;;;6088430;23;20508;-75
2023/09/10 08:53:14;;;;;;;19.45;17.67;;;25.90;99.90;;;;;;6116500;23;20464;-75
2023/09/10 08:55:42;;;;;;;17.25;15.82;;;26.10;99.90;;;;;;6116397;23;20021;-75
2023/09/10 08:58:11;;;;;;;18.75;17.15;;;26.40;99.90;;;;;;6090723;23;20018;-75
2023/09/10 09:00:38;;;;;;;16.92;15.43;;;26.40;99.90;;;;;;6089444;23;20021;-74
2023/09/10 09:03:04;;;;;;;16.85;15.35;;;26.60;99.90;;;;;;6089507;23;20095;-75
2023/09/10 09:05:30;;;;;;;17.42;15.75;;;26.60;99.90;;;;;;6089643;23;20034;-75
2023/09/10 09:08:05;;;;;;;15.45;13.98;;;26.70;99.90;;;;;;6115088;23;20383;-76
2023/09/10 09:10:33;;;;;;;16.60;15.20;;;26.80;99.90;;;;;;6116584;23;20014;-75
2023/09/10 09:13:03;;;;;;;15.60;14.00;;;27.00;99.90;;;;;;6116532;23;20018;-76
2023/09/10 09:15:31;;;;;;;15.75;14.23;;;27.00;99.90;;;;;;6116229;23;20647;-75
2023/09/10 09:17:58;;;;;;;14.88;13.38;;;27.10;99.90;;;;;;6090782;23;20056;-75
2023/09/10 09:20:24;;;;;;;14.35;12.82;;;27.20;99.90;;;;;;6116638;23;20067;-75
2023/09/10 09:23:00;;;;;;;14.02;12.70;;;27.20;99.90;;;;;;6117637;23;20010;-74
2023/09/10 09:25:27;;;;;;;15.05;13.45;;;27.20;99.90;;;;;;6118744;23;20010;-74
2023/09/10 09:27:55;;;;;;;13.73;11.93;;;27.40;99.90;;;;;;6118846;23;20071;-74
2023/09/10 09:30:21;;;;;;;14.52;12.15;;;27.50;99.90;;;;;;6116614;23;20018;-74
2023/09/10 10:06:41;;;;;;;11.55;10.55;;;28.40;99.90;;;;;;6116686;23;20022;-77
2023/09/10 10:09:06;;;;;;;12.57;11.30;;;28.30;99.90;;;;;;6117271;23;20498;-77
2023/09/10 10:11:32;;;;;;;13.80;10.50;;;28.10;99.90;;;;;;6117527;23;20037;-76
2023/09/10 10:13:59;;;;;;;11.68;10.50;;;28.20;99.90;;;;;;6117967;23;20440;-77
2023/09/10 10:16:29;;;;;;;11.00;9.15;;;28.00;99.90;;;;;;6115929;23;20025;-77
2023/09/10 10:18:55;;;;;;;14.10;10.38;;;28.20;99.90;;;;;;6116103;23;20021;-77
2023/09/10 10:21:23;;;;;;;16.20;11.60;;;28.10;99.90;;;;;;6090713;23;20054;-77
2023/09/10 10:23:51;;;;;;;12.60;10.18;;;28.20;99.90;;;;;;6117430;23;20021;-77
2023/09/10 10:26:17;;;;;;;15.93;9.77;;;28.30;99.90;;;;;;6091282;23;20081;-77
2023/09/10 10:28:47;;;;;;;12.63;10.77;;;28.10;99.90;;;;;;6116454;23;20041;-77
2023/09/10 10:31:16;;;;;;;12.98;9.52;;;28.10;99.90;;;;;;6089671;23;20026;-78
2023/09/10 10:33:50;;;;;;;13.27;8.88;;;27.90;99.90;;;;;;6089708;23;20018;-78
2023/09/10 10:36:32;;;;;;;10.13;8.00;;;28.10;99.90;;;;;;6091136;23;20025;-79
2023/09/10 10:39:01;;;;;;;9.45;8.57;;;28.30;99.90;;;;;;6066319;23;20014;-78
2023/09/10 10:41:29;;;;;;;10.30;7.85;;;28.40;99.90;;;;;;6118225;23;20036;-78
2023/09/10 10:44:18;;;;;;;11.27;10.10;;;28.70;99.90;;;;;;6116028;23;20342;-78
2023/09/10 10:46:44;;;;;;;18.08;8.02;;;28.50;99.90;;;;;;6115897;23;20093;-78
2023/09/10 10:49:11;;;;;;;18.02;8.00;;;28.40;99.90;;;;;;6114042;23;20021;-78
2023/09/10 10:51:45;;;;;;;15.90;8.00;;;28.30;99.90;;;;;;6090289;23;20028;-78
2023/09/10 10:54:13;;;;;;;9.23;7.32;;;28.50;99.90;;;;;;6089341;23;20053;-78
2023/09/10 10:56:40;;;;;;;15.30;8.73;;;28.70;99.90;;;;;;6116145;23;20018;-79
2023/09/10 10:59:06;;;;;;;11.00;8.70;;;28.50;99.90;;;;;;6088886;23;20094;-78
2023/09/10 11:01:32;;;;;;;13.20;8.32;;;28.40;99.90;;;;;;6116957;23;20468;-78
2023/09/10 11:03:57;;;;;;;9.30;7.88;;;28.40;99.90;;;;;;6117895;23;20047;-79
2023/09/10 11:06:23;;;;;;;12.68;7.57;;;28.30;99.90;;;;;;6090407;23;20437;-80
2023/09/10 11:08:48;;;;;;;9.77;7.20;;;28.30;99.90;;;;;;6115610;23;20029;-79
2023/09/10 11:11:39;;;;;;;16.25;6.82;;;28.30;99.90;;;;;;6091198;23;20018;-78
2023/09/10 11:14:08;;;;;;;16.05;7.10;;;28.40;99.90;;;;;;6116344;23;20093;-82
2023/09/10 11:16:42;;;;;;;11.07;7.03;;;28.50;99.90;;;;;;6117102;23;20020;-83
2023/09/10 11:19:46;;;;;;;10.15;6.43;;;28.80;99.90;;;;;;6090699;23;20025;-82
2023/09/10 11:22:12;;;;;;;13.23;7.25;;;28.60;99.90;;;;;;6118676;23;20037;-82
2023/09/10 11:24:40;;;;;;;13.77;7.80;;;28.60;99.90;;;;;;6118713;23;20018;-82
2023/09/10 11:27:35;;;;;;;8.23;6.70;;;28.50;99.90;;;;;;6117435;23;20014;-83
2023/09/10 11:30:14;;;;;;;14.73;6.55;;;28.50;99.90;;;;;;6116200;23;20020;-83
2023/09/10 11:32:43;;;;;;;11.57;6.60;;;28.60;99.90;;;;;;6118337;23;20021;-83
2023/09/10 11:35:17;;;;;;;12.02;7.38;;;28.60;99.90;;;;;;6117757;23;20026;-82
2023/09/10 11:37:51;;;;;;;13.70;7.03;;;28.50;99.90;;;;;;6118142;23;20025;-81
2023/09/10 11:40:18;;;;;;;9.43;6.40;;;28.50;99.90;;;;;;6090550;23;20018;-81
2023/09/10 11:42:48;;;;;;;17.67;8.10;;;28.50;99.90;;;;;;6117205;23;20320;-83
2023/09/10 11:45:16;;;;;;;12.23;6.97;;;28.40;99.90;;;;;;6091960;23;20137;-82
2023/09/10 11:47:46;;;;;;;13.52;6.47;;;28.40;99.90;;;;;;6092312;23;20033;-82
2023/09/10 11:50:14;;;;;;;10.15;5.68;;;28.40;99.90;;;;;;6116306;23;20056;-83
2023/09/10 12:41:41;;;;;;;15.20;5.27;;;29.20;99.90;;;;;;6117253;23;20244;-70
2023/09/10 12:44:09;;;;;;;16.48;6.05;;;29.30;99.90;;;;;;6118075;23;20453;-70
2023/09/10 12:46:35;;;;;;;10.40;5.90;;;29.50;99.90;;;;;;6119419;23;20372;-70
2023/09/10 12:49:01;;;;;;;17.33;6.30;;;29.40;99.90;;;;;;6118572;23;20021;-70
2023/09/10 12:51:26;;;;;;;15.45;6.43;;;29.30;99.90;;;;;;6092292;23;20463;-70
2023/09/10 12:53:52;;;;;;;30.88;6.65;;;29.20;99.90;;;;;;6117856;23;20451;-70
2023/09/10 12:56:17;;;;;;;22.73;6.50;;;29.00;99.90;;;;;;6091707;23;20381;-70
2023/09/10 12:58:44;;;;;;;24.17;6.55;;;29.10;99.90;;;;;;6092406;23;20014;-70
2023/09/10 13:01:14;;;;;;;21.10;6.65;;;29.30;99.90;;;;;;6119191;23;20014;-70
2023/09/10 13:03:39;;;;;;;18.70;6.97;;;29.40;99.90;;;;;;6119686;23;20018;-74
2023/09/10 13:06:05;;;;;;;10.77;5.97;;;29.50;99.90;;;;;;6118785;23;20055;-71
2023/09/10 13:08:31;;;;;;;27.13;5.72;;;29.60;99.90;;;;;;6092338;23;20353;-69
2023/09/10 13:10:59;;;;;;;26.55;7.85;;;29.60;99.90;;;;;;6091647;23;20053;-72
2023/09/10 13:13:25;;;;;;;20.27;6.43;;;29.60;99.90;;;;;;6119481;23;20615;-73
2023/09/10 13:15:51;;;;;;;18.38;5.85;;;29.70;99.80;;;;;;6119655;23;20014;-76
2023/09/10 13:18:16;;;;;;;24.00;5.85;;;29.60;99.90;;;;;;6094423;23;20441;-76
2023/09/10 13:20:42;;;;;;;14.15;5.97;;;29.60;99.50;;;;;;6115299;23;20326;-76
2023/09/10 13:23:08;;;;;;;25.50;6.70;;;29.70;99.20;;;;;;6117889;23;20041;-76
2023/09/10 13:25:33;;;;;;;31.60;6.22;;;29.70;99.10;;;;;;6118363;23;20006;-76
2023/09/10 13:27:59;;;;;;;20.00;6.28;;;29.80;99.20;;;;;;6092846;23;20052;-76
2023/09/10 13:30:25;;;;;;;21.20;5.93;;;29.80;98.80;;;;;;6118025;23;20029;-76
2023/09/10 13:32:51;;;;;;;22.50;7.50;;;29.50;98.90;;;;;;6092228;23;20022;-76
2023/09/10 13:35:17;;;;;;;26.08;6.40;;;29.50;99.60;;;;;;6091324;23;20021;-75
2023/09/10 13:37:43;;;;;;;21.83;5.82;;;29.40;99.50;;;;;;6118292;23;20021;-75
2023/09/10 13:40:09;;;;;;;17.58;5.55;;;29.20;99.00;;;;;;6090601;23;20018;-75
2023/09/10 13:42:36;;;;;;;24.05;5.57;;;29.20;99.60;;;;;;6090743;23;20048;-75
2023/09/10 13:45:01;;;;;;;24.13;6.18;;;29.30;99.90;;;;;;6118605;23;20014;-75
2023/09/10 13:47:28;;;;;;;20.90;7.20;;;29.10;99.60;;;;;;6093004;23;20024;-75
2023/09/10 13:49:53;;;;;;;16.65;6.25;;;29.00;99.60;;;;;;6116893;23;20025;-75
2023/09/10 13:52:19;;;;;;;22.95;5.90;;;28.90;99.90;;;;;;6117354;23;20014;-75
2023/09/10 13:54:44;;;;;;;21.95;5.45;;;28.90;99.90;;;;;;6119109;23;20006;-76
2023/09/10 13:57:10;;;;;;;22.83;5.80;;;29.00;99.90;;;;;;6116543;23;20025;-76
2023/09/10 13:59:36;;;;;;;17.02;5.75;;;29.10;99.90;;;;;;6117441;23;20357;-75
2023/09/10 14:02:02;;;;;;;20.27;5.70;;;29.00;99.90;;;;;;6092135;23;20018;-75
2023/09/10 14:04:29;;;;;;;19.30;6.22;;;29.00;99.90;;;;;;6119292;23;20388;-75
2023/09/10 14:06:55;;;;;;;16.45;6.13;;;29.10;99.90;;;;;;6117642;23;20750;-76
2023/09/10 14:09:20;;;;;;;23.65;6.68;;;29.00;99.90;;;;;;6115954;23;20037;-73
2023/09/10 14:11:46;;;;;;;20.50;6.13;;;29.10;99.90;;;;;;6118986;23;20018;-73
2023/09/10 14:14:12;;;;;;;18.13;6.43;;;29.10;99.90;;;;;;6092531;23;20026;-73
2023/09/10 14:16:38;;;;;;;19.98;6.22;;;29.00;99.90;;;;;;6116925;23;20014;-75
2023/09/10 14:19:04;;;;;;;29.50;6.38;;;29.10;99.90;;;;;;6090738;23;20099;-74
2023/09/10 14:21:30;;;;;;;25.92;6.72;;;29.10;99.90;;;;;;6117130;23;20022;-74
2023/09/10 14:23:55;;;;;;;22.35;7.22;;;29.20;99.90;;;;;;6092107;23;20027;-73
2023/09/10 14:26:21;;;;;;;16.05;5.03;;;29.20;99.90;;;;;;6117815;23;20045;-74
2023/09/10 14:28:47;;;;;;;17.27;5.82;;;29.20;99.90;;;;;;6067593;23;20035;-73
2023/09/10 14:31:12;;;;;;;19.45;6.50;;;29.20;99.90;;;;;;6091383;23;20382;-74